sensor_id;sensor_type;location;lat;lon;timestamp;P1;durP1;ratioP1;P2;durP2;ratioP2
19867;SDS011;10096;51.112;6.776;2023-02-01T00:01:08;15.80;;;10.03;;
19867;SDS011;10096;51.112;6.776;2023-02-01T00:03:35;17.73;;;11.27;;
19867;SDS011;10096;51.112;6.776;2023-02-01T00:06:03;18.90;;;11.07;;
19867;SDS011;10096;51.112;6.776;2023-02-01T00:08:30;17.20;;;10.93;;
19867;SDS011;10096;51.112;6.776;2023-02-01T00:10:58;18.73;;;10.00;;
19867;SDS011;10096;51.112;6.776;2023-02-01T00:13:27;16.93;;;11.17;;
19867;SDS011;10096;51.112;6.776;2023-02-01T00:15:55;13.50;;;9.57;;
19867;SDS011;10096;51.112;6.776;2023-02-01T00:18:29;17.80;;;9.87;;
19867;SDS011;10096;51.112;6.776;2023-02-01T00:20:56;17.27;;;9.83;;
19867;SDS011;10096;51.112;6.776;2023-02-01T00:23:23;13.97;;;9.27;;
19867;SDS011;10096;51.112;6.776;2023-02-01T00:25:50;16.47;;;8.80;;
19867;SDS011;10096;51.112;6.776;2023-02-01T00:28:18;15.03;;;8.80;;
19867;SDS011;10096;51.112;6.776;2023-02-01T00:30:45;17.33;;;8.23;;
19867;SDS011;10096;51.112;6.776;2023-02-01T00:33:12;15.53;;;7.90;;
19867;SDS011;10096;51.112;6.776;2023-02-01T00:35:39;15.27;;;8.07;;
19867;SDS011;10096;51.112;6.776;2023-02-01T00:38:06;15.83;;;7.30;;
19867;SDS011;10096;51.112;6.776;2023-02-01T00:40:32;13.63;;;8.17;;
19867;SDS011;10096;51.112;6.776;2023-02-01T00:42:59;16.47;;;7.80;;
19867;SDS011;10096;51.112;6.776;2023-02-01T00:45:28;15.73;;;6.67;;
19867;SDS011;10096;51.112;6.776;2023-02-01T00:47:54;11.17;;;7.03;;
19867;SDS011;10096;51.112;6.776;2023-02-01T00:50:21;14.90;;;6.80;;
19867;SDS011;10096;51.112;6.776;2023-02-01T00:52:48;12.60;;;5.90;;
19867;SDS011;10096;51.112;6.776;2023-02-01T00:55:15;14.40;;;6.57;;
19867;SDS011;10096;51.112;6.776;2023-02-01T00:57:42;9.53;;;5.67;;
19867;SDS011;10096;51.112;6.776;2023-02-01T01:00:10;13.57;;;5.93;;
19867;SDS011;10096;51.112;6.776;2023-02-01T01:02:38;10.90;;;6.00;;
19867;SDS011;10096;51.112;6.776;2023-02-01T01:05:05;14.47;;;6.57;;
19867;SDS011;10096;51.112;6.776;2023-02-01T01:07:33;9.77;;;5.73;;
19867;SDS011;10096;51.112;6.776;2023-02-01T01:09:59;12.07;;;5.67;;
19867;SDS011;10096;51.112;6.776;2023-02-01T01:12:26;15.20;;;6.37;;
19867;SDS011;10096;51.112;6.776;2023-02-01T01:14:53;12.17;;;4.80;;
19867;SDS011;10096;51.112;6.776;2023-02-01T01:17:20;12.73;;;5.37;;
19867;SDS011;10096;51.112;6.776;2023-02-01T01:19:48;12.20;;;4.60;;
19867;SDS011;10096;51.112;6.776;2023-02-01T01:22:15;12.93;;;4.90;;
19867;SDS011;10096;51.112;6.776;2023-02-01T01:24:42;11.30;;;4.43;;
19867;SDS011;10096;51.112;6.776;2023-02-01T01:27:10;13.83;;;5.03;;
19867;SDS011;10096;51.112;6.776;2023-02-01T01:29:37;12.13;;;4.63;;
19867;SDS011;10096;51.112;6.776;2023-02-01T01:32:03;12.17;;;4.80;;
19867;SDS011;10096;51.112;6.776;2023-02-01T01:34:30;13.57;;;4.70;;
19867;SDS011;10096;51.112;6.776;2023-02-01T01:36:58;11.10;;;4.70;;
19867;SDS011;10096;51.112;6.776;2023-02-01T01:39:25;10.20;;;4.53;;
19867;SDS011;10096;51.112;6.776;2023-02-01T01:41:52;16.83;;;4.93;;
19867;SDS011;10096;51.112;6.776;2023-02-01T01:47:24;14.23;;;5.00;;
19867;SDS011;10096;51.112;6.776;2023-02-01T01:49:53;14.83;;;5.33;;
19867;SDS011;10096;51.112;6.776;2023-02-01T01:52:21;14.43;;;4.53;;
19867;SDS011;10096;51.112;6.776;2023-02-01T01:54:50;10.70;;;4.50;;
19867;SDS011;10096;51.112;6.776;2023-02-01T01:57:20;9.80;;;4.67;;
19867;SDS011;10096;51.112;6.776;2023-02-01T01:59:53;15.17;;;5.33;;
19867;SDS011;10096;51.112;6.776;2023-02-01T02:02:27;14.97;;;5.00;;
19867;SDS011;10096;51.112;6.776;2023-02-01T02:04:55;14.63;;;4.93;;
19867;SDS011;10096;51.112;6.776;2023-02-01T02:07:25;14.23;;;5.27;;
19867;SDS011;10096;51.112;6.776;2023-02-01T02:09:56;11.50;;;4.60;;
19867;SDS011;10096;51.112;6.776;2023-02-01T02:12:23;12.93;;;5.10;;
19867;SDS011;10096;51.112;6.776;2023-02-01T02:14:50;11.47;;;5.07;;
19867;SDS011;10096;51.112;6.776;2023-02-01T02:17:24;14.60;;;5.10;;
19867;SDS011;10096;51.112;6.776;2023-02-01T02:23:05;11.97;;;4.73;;
19867;SDS011;10096;51.112;6.776;2023-02-01T02:32:22;12.90;;;4.90;;
19867;SDS011;10096;51.112;6.776;2023-02-01T02:35:11;13.13;;;4.87;;
19867;SDS011;10096;51.112;6.776;2023-02-01T02:37:49;11.27;;;4.30;;
19867;SDS011;10096;51.112;6.776;2023-02-01T02:40:20;11.40;;;5.47;;
19867;SDS011;10096;51.112;6.776;2023-02-01T02:42:56;12.43;;;4.50;;
19867;SDS011;10096;51.112;6.776;2023-02-01T02:45:52;15.03;;;5.00;;
19867;SDS011;10096;51.112;6.776;2023-02-01T02:48:43;14.13;;;5.30;;
19867;SDS011;10096;51.112;6.776;2023-02-01T02:51:14;23.00;;;5.03;;
19867;SDS011;10096;51.112;6.776;2023-02-01T02:54:05;10.90;;;4.47;;
19867;SDS011;10096;51.112;6.776;2023-02-01T02:56:54;14.43;;;4.87;;
19867;SDS011;10096;51.112;6.776;2023-02-01T02:59:41;12.13;;;4.77;;
19867;SDS011;10096;51.112;6.776;2023-02-01T03:02:28;14.93;;;4.47;;
19867;SDS011;10096;51.112;6.776;2023-02-01T03:05:13;13.30;;;4.77;;
19867;SDS011;10096;51.112;6.776;2023-02-01T03:07:49;10.33;;;4.80;;
19867;SDS011;10096;51.112;6.776;2023-02-01T03:10:24;12.50;;;5.13;;
19867;SDS011;10096;51.112;6.776;2023-02-01T03:12:59;13.37;;;5.07;;
19867;SDS011;10096;51.112;6.776;2023-02-01T03:15:31;15.53;;;5.30;;
19867;SDS011;10096;51.112;6.776;2023-02-01T03:18:02;11.40;;;5.17;;
19867;SDS011;10096;51.112;6.776;2023-02-01T03:20:30;13.40;;;5.63;;
19867;SDS011;10096;51.112;6.776;2023-02-01T03:23:01;18.23;;;6.20;;
19867;SDS011;10096;51.112;6.776;2023-02-01T03:25:31;17.27;;;5.43;;
19867;SDS011;10096;51.112;6.776;2023-02-01T03:28:00;16.50;;;5.67;;
19867;SDS011;10096;51.112;6.776;2023-02-01T03:30:30;13.67;;;5.50;;
19867;SDS011;10096;51.112;6.776;2023-02-01T03:33:02;20.50;;;5.90;;
19867;SDS011;10096;51.112;6.776;2023-02-01T03:35:40;12.03;;;5.53;;
19867;SDS011;10096;51.112;6.776;2023-02-01T03:38:14;11.17;;;5.60;;
19867;SDS011;10096;51.112;6.776;2023-02-01T03:40:46;14.10;;;4.80;;
19867;SDS011;10096;51.112;6.776;2023-02-01T03:43:18;16.10;;;5.23;;
19867;SDS011;10096;51.112;6.776;2023-02-01T03:45:48;12.53;;;5.00;;
19867;SDS011;10096;51.112;6.776;2023-02-01T03:48:19;10.37;;;5.10;;
19867;SDS011;10096;51.112;6.776;2023-02-01T03:50:50;11.10;;;4.80;;
19867;SDS011;10096;51.112;6.776;2023-02-01T03:53:23;15.67;;;5.83;;
19867;SDS011;10096;51.112;6.776;2023-02-01T03:55:52;11.33;;;4.17;;
19867;SDS011;10096;51.112;6.776;2023-02-01T03:58:21;19.90;;;5.37;;
19867;SDS011;10096;51.112;6.776;2023-02-01T04:00:50;13.13;;;4.93;;
19867;SDS011;10096;51.112;6.776;2023-02-01T04:03:18;17.07;;;5.10;;
19867;SDS011;10096;51.112;6.776;2023-02-01T04:05:46;15.67;;;5.33;;
19867;SDS011;10096;51.112;6.776;2023-02-01T04:08:13;9.30;;;4.93;;
19867;SDS011;10096;51.112;6.776;2023-02-01T04:10:41;13.97;;;5.87;;
19867;SDS011;10096;51.112;6.776;2023-02-01T04:13:09;12.93;;;4.27;;
19867;SDS011;10096;51.112;6.776;2023-02-01T04:15:35;11.40;;;5.00;;
19867;SDS011;10096;51.112;6.776;2023-02-01T04:18:03;14.33;;;5.17;;
19867;SDS011;10096;51.112;6.776;2023-02-01T04:20:30;11.33;;;4.20;;
19867;SDS011;10096;51.112;6.776;2023-02-01T04:22:57;12.03;;;4.77;;
19867;SDS011;10096;51.112;6.776;2023-02-01T04:25:27;13.20;;;4.77;;
19867;SDS011;10096;51.112;6.776;2023-02-01T04:27:55;13.53;;;5.37;;
19867;SDS011;10096;51.112;6.776;2023-02-01T04:30:22;10.60;;;4.93;;
19867;SDS011;10096;51.112;6.776;2023-02-01T04:32:49;17.60;;;5.33;;
19867;SDS011;10096;51.112;6.776;2023-02-01T04:35:16;14.57;;;5.20;;
19867;SDS011;10096;51.112;6.776;2023-02-01T04:37:43;19.37;;;5.37;;
19867;SDS011;10096;51.112;6.776;2023-02-01T04:40:10;11.37;;;4.47;;
19867;SDS011;10096;51.112;6.776;2023-02-01T04:42:38;13.80;;;4.60;;
19867;SDS011;10096;51.112;6.776;2023-02-01T04:45:07;13.90;;;4.63;;
19867;SDS011;10096;51.112;6.776;2023-02-01T04:47:34;11.13;;;4.70;;
19867;SDS011;10096;51.112;6.776;2023-02-01T04:50:01;15.17;;;4.63;;
19867;SDS011;10096;51.112;6.776;2023-02-01T04:52:28;10.27;;;4.90;;
19867;SDS011;10096;51.112;6.776;2023-02-01T04:54:55;14.53;;;5.03;;
19867;SDS011;10096;51.112;6.776;2023-02-01T04:57:25;12.47;;;4.73;;
19867;SDS011;10096;51.112;6.776;2023-02-01T04:59:53;11.57;;;4.90;;
19867;SDS011;10096;51.112;6.776;2023-02-01T05:02:22;19.47;;;5.77;;
19867;SDS011;10096;51.112;6.776;2023-02-01T05:04:48;13.60;;;4.80;;
19867;SDS011;10096;51.112;6.776;2023-02-01T05:07:16;16.00;;;4.70;;
19867;SDS011;10096;51.112;6.776;2023-02-01T05:09:43;14.00;;;4.93;;
19867;SDS011;10096;51.112;6.776;2023-02-01T05:12:09;15.63;;;4.80;;
19867;SDS011;10096;51.112;6.776;2023-02-01T05:14:56;11.77;;;4.80;;
19867;SDS011;10096;51.112;6.776;2023-02-01T05:17:25;15.97;;;4.90;;
19867;SDS011;10096;51.112;6.776;2023-02-01T05:19:52;11.17;;;4.70;;
19867;SDS011;10096;51.112;6.776;2023-02-01T05:22:19;14.73;;;4.67;;
19867;SDS011;10096;51.112;6.776;2023-02-01T05:24:46;17.43;;;5.07;;
19867;SDS011;10096;51.112;6.776;2023-02-01T05:27:12;15.10;;;4.90;;
19867;SDS011;10096;51.112;6.776;2023-02-01T05:29:39;14.13;;;4.60;;
19867;SDS011;10096;51.112;6.776;2023-02-01T05:32:08;14.23;;;5.33;;
19867;SDS011;10096;51.112;6.776;2023-02-01T05:34:38;16.07;;;6.00;;
19867;SDS011;10096;51.112;6.776;2023-02-01T05:37:05;14.30;;;5.97;;
19867;SDS011;10096;51.112;6.776;2023-02-01T05:39:31;18.50;;;5.83;;
19867;SDS011;10096;51.112;6.776;2023-02-01T05:41:58;16.40;;;8.03;;
19867;SDS011;10096;51.112;6.776;2023-02-01T05:44:26;14.67;;;6.90;;
19867;SDS011;10096;51.112;6.776;2023-02-01T05:46:52;16.20;;;6.10;;
19867;SDS011;10096;51.112;6.776;2023-02-01T05:49:19;15.70;;;5.60;;
19867;SDS011;10096;51.112;6.776;2023-02-01T05:51:48;15.50;;;5.47;;
19867;SDS011;10096;51.112;6.776;2023-02-01T05:54:14;11.13;;;4.80;;
19867;SDS011;10096;51.112;6.776;2023-02-01T05:56:41;15.10;;;4.73;;
19867;SDS011;10096;51.112;6.776;2023-02-01T05:59:08;14.47;;;5.83;;
19867;SDS011;10096;51.112;6.776;2023-02-01T06:01:35;19.43;;;5.93;;
19867;SDS011;10096;51.112;6.776;2023-02-01T06:04:02;14.30;;;5.03;;
19867;SDS011;10096;51.112;6.776;2023-02-01T06:06:30;14.50;;;4.77;;
19867;SDS011;10096;51.112;6.776;2023-02-01T06:08:58;14.37;;;5.07;;
19867;SDS011;10096;51.112;6.776;2023-02-01T06:11:25;13.30;;;4.63;;
19867;SDS011;10096;51.112;6.776;2023-02-01T06:13:52;14.80;;;5.87;;
19867;SDS011;10096;51.112;6.776;2023-02-01T06:16:20;13.47;;;5.27;;
19867;SDS011;10096;51.112;6.776;2023-02-01T06:18:47;12.73;;;5.03;;
19867;SDS011;10096;51.112;6.776;2023-02-01T06:21:14;12.03;;;4.90;;
19867;SDS011;10096;51.112;6.776;2023-02-01T06:23:48;15.30;;;4.83;;
19867;SDS011;10096;51.112;6.776;2023-02-01T06:26:17;14.53;;;5.80;;
19867;SDS011;10096;51.112;6.776;2023-02-01T06:28:44;18.57;;;7.30;;
19867;SDS011;10096;51.112;6.776;2023-02-01T06:31:11;21.50;;;9.07;;
19867;SDS011;10096;51.112;6.776;2023-02-01T06:33:38;16.73;;;7.33;;
19867;SDS011;10096;51.112;6.776;2023-02-01T06:36:06;23.67;;;9.30;;
19867;SDS011;10096;51.112;6.776;2023-02-01T06:38:36;13.17;;;4.83;;
19867;SDS011;10096;51.112;6.776;2023-02-01T06:41:04;13.10;;;5.07;;
19867;SDS011;10096;51.112;6.776;2023-02-01T06:43:33;12.40;;;5.27;;
19867;SDS011;10096;51.112;6.776;2023-02-01T06:46:00;15.33;;;4.57;;
19867;SDS011;10096;51.112;6.776;2023-02-01T06:48:28;14.17;;;5.37;;
19867;SDS011;10096;51.112;6.776;2023-02-01T06:50:56;11.90;;;4.53;;
19867;SDS011;10096;51.112;6.776;2023-02-01T06:53:23;15.10;;;5.37;;
19867;SDS011;10096;51.112;6.776;2023-02-01T06:55:53;15.57;;;5.90;;
19867;SDS011;10096;51.112;6.776;2023-02-01T06:58:21;21.77;;;6.50;;
19867;SDS011;10096;51.112;6.776;2023-02-01T07:00:50;12.23;;;5.43;;
19867;SDS011;10096;51.112;6.776;2023-02-01T07:03:18;13.10;;;5.20;;
19867;SDS011;10096;51.112;6.776;2023-02-01T07:05:45;13.00;;;5.80;;
19867;SDS011;10096;51.112;6.776;2023-02-01T07:08:12;17.27;;;5.53;;
19867;SDS011;10096;51.112;6.776;2023-02-01T07:10:40;14.17;;;5.53;;
19867;SDS011;10096;51.112;6.776;2023-02-01T07:13:07;12.93;;;4.83;;
19867;SDS011;10096;51.112;6.776;2023-02-01T07:15:34;12.63;;;5.20;;
19867;SDS011;10096;51.112;6.776;2023-02-01T07:18:02;15.37;;;6.10;;
19867;SDS011;10096;51.112;6.776;2023-02-01T07:20:29;20.87;;;8.33;;
19867;SDS011;10096;51.112;6.776;2023-02-01T07:22:56;14.27;;;6.17;;
19867;SDS011;10096;51.112;6.776;2023-02-01T07:25:23;19.13;;;8.07;;
19867;SDS011;10096;51.112;6.776;2023-02-01T07:27:50;15.27;;;6.13;;
19867;SDS011;10096;51.112;6.776;2023-02-01T07:30:17;20.90;;;6.20;;
19867;SDS011;10096;51.112;6.776;2023-02-01T07:32:44;17.80;;;5.67;;
19867;SDS011;10096;51.112;6.776;2023-02-01T07:35:13;15.20;;;6.00;;
19867;SDS011;10096;51.112;6.776;2023-02-01T07:37:40;13.27;;;4.93;;
19867;SDS011;10096;51.112;6.776;2023-02-01T07:40:07;16.53;;;6.03;;
19867;SDS011;10096;51.112;6.776;2023-02-01T07:42:35;15.93;;;5.00;;
19867;SDS011;10096;51.112;6.776;2023-02-01T07:45:02;13.17;;;5.13;;
19867;SDS011;10096;51.112;6.776;2023-02-01T07:47:29;16.80;;;5.47;;
19867;SDS011;10096;51.112;6.776;2023-02-01T07:49:57;20.60;;;6.50;;
19867;SDS011;10096;51.112;6.776;2023-02-01T07:52:25;13.93;;;5.13;;
19867;SDS011;10096;51.112;6.776;2023-02-01T07:54:54;17.10;;;5.83;;
19867;SDS011;10096;51.112;6.776;2023-02-01T07:57:21;18.70;;;6.33;;
19867;SDS011;10096;51.112;6.776;2023-02-01T07:59:52;16.07;;;5.00;;
19867;SDS011;10096;51.112;6.776;2023-02-01T08:02:37;15.40;;;5.93;;
19867;SDS011;10096;51.112;6.776;2023-02-01T08:05:04;18.17;;;6.60;;
19867;SDS011;10096;51.112;6.776;2023-02-01T08:07:33;12.60;;;5.13;;
19867;SDS011;10096;51.112;6.776;2023-02-01T08:10:00;14.40;;;5.20;;
19867;SDS011;10096;51.112;6.776;2023-02-01T08:12:27;14.37;;;5.43;;
19867;SDS011;10096;51.112;6.776;2023-02-01T08:14:53;18.53;;;5.33;;
19867;SDS011;10096;51.112;6.776;2023-02-01T08:17:21;14.37;;;4.97;;
19867;SDS011;10096;51.112;6.776;2023-02-01T08:19:48;14.23;;;5.30;;
19867;SDS011;10096;51.112;6.776;2023-02-01T08:22:15;12.87;;;5.37;;
19867;SDS011;10096;51.112;6.776;2023-02-01T08:24:43;16.70;;;6.07;;
19867;SDS011;10096;51.112;6.776;2023-02-01T08:27:10;18.70;;;5.93;;
19867;SDS011;10096;51.112;6.776;2023-02-01T08:29:37;13.53;;;5.30;;
19867;SDS011;10096;51.112;6.776;2023-02-01T08:32:05;20.63;;;5.93;;
19867;SDS011;10096;51.112;6.776;2023-02-01T08:34:32;16.13;;;5.70;;
19867;SDS011;10096;51.112;6.776;2023-02-01T08:36:59;14.53;;;5.57;;
19867;SDS011;10096;51.112;6.776;2023-02-01T08:39:26;12.13;;;5.27;;
19867;SDS011;10096;51.112;6.776;2023-02-01T08:41:55;11.63;;;6.30;;
19867;SDS011;10096;51.112;6.776;2023-02-01T08:44:39;15.20;;;6.87;;
19867;SDS011;10096;51.112;6.776;2023-02-01T08:47:06;12.47;;;5.33;;
19867;SDS011;10096;51.112;6.776;2023-02-01T08:49:32;17.10;;;5.97;;
19867;SDS011;10096;51.112;6.776;2023-02-01T08:51:59;15.23;;;5.30;;
19867;SDS011;10096;51.112;6.776;2023-02-01T08:54:26;16.87;;;7.03;;
19867;SDS011;10096;51.112;6.776;2023-02-01T08:56:54;18.40;;;7.57;;
19867;SDS011;10096;51.112;6.776;2023-02-01T08:59:21;14.50;;;6.40;;
19867;SDS011;10096;51.112;6.776;2023-02-01T09:01:49;17.57;;;5.07;;
19867;SDS011;10096;51.112;6.776;2023-02-01T09:04:17;13.37;;;5.27;;
19867;SDS011;10096;51.112;6.776;2023-02-01T09:06:44;20.23;;;6.17;;
19867;SDS011;10096;51.112;6.776;2023-02-01T09:09:11;15.13;;;5.70;;
19867;SDS011;10096;51.112;6.776;2023-02-01T09:11:37;16.37;;;5.37;;
19867;SDS011;10096;51.112;6.776;2023-02-01T09:14:06;12.63;;;5.03;;
19867;SDS011;10096;51.112;6.776;2023-02-01T09:16:33;16.50;;;5.00;;
19867;SDS011;10096;51.112;6.776;2023-02-01T09:19:00;16.50;;;5.80;;
19867;SDS011;10096;51.112;6.776;2023-02-01T09:21:27;13.93;;;5.73;;
19867;SDS011;10096;51.112;6.776;2023-02-01T09:23:54;14.30;;;5.03;;
19867;SDS011;10096;51.112;6.776;2023-02-01T09:26:21;15.80;;;5.67;;
19867;SDS011;10096;51.112;6.776;2023-02-01T09:28:48;15.10;;;5.90;;
19867;SDS011;10096;51.112;6.776;2023-02-01T09:31:16;19.47;;;7.10;;
19867;SDS011;10096;51.112;6.776;2023-02-01T09:33:44;18.43;;;5.00;;
19867;SDS011;10096;51.112;6.776;2023-02-01T09:36:11;16.90;;;5.33;;
19867;SDS011;10096;51.112;6.776;2023-02-01T09:38:38;15.73;;;5.30;;
19867;SDS011;10096;51.112;6.776;2023-02-01T09:41:07;19.97;;;6.37;;
19867;SDS011;10096;51.112;6.776;2023-02-01T09:43:48;19.10;;;6.60;;
19867;SDS011;10096;51.112;6.776;2023-02-01T09:46:26;18.27;;;6.60;;
19867;SDS011;10096;51.112;6.776;2023-02-01T09:48:59;18.87;;;6.47;;
19867;SDS011;10096;51.112;6.776;2023-02-01T09:51:31;13.27;;;5.13;;
19867;SDS011;10096;51.112;6.776;2023-02-01T09:54:01;9.40;;;5.07;;
19867;SDS011;10096;51.112;6.776;2023-02-01T09:56:34;10.63;;;5.40;;
19867;SDS011;10096;51.112;6.776;2023-02-01T09:59:09;11.70;;;5.77;;
19867;SDS011;10096;51.112;6.776;2023-02-01T10:01:46;11.77;;;5.23;;
19867;SDS011;10096;51.112;6.776;2023-02-01T10:04:14;11.63;;;4.90;;
19867;SDS011;10096;51.112;6.776;2023-02-01T10:06:50;16.23;;;5.83;;
19867;SDS011;10096;51.112;6.776;2023-02-01T10:09:33;22.23;;;6.13;;
19867;SDS011;10096;51.112;6.776;2023-02-01T10:12:27;20.77;;;6.40;;
19867;SDS011;10096;51.112;6.776;2023-02-01T10:18:19;14.30;;;5.90;;
19867;SDS011;10096;51.112;6.776;2023-02-01T10:21:08;14.27;;;5.30;;
19867;SDS011;10096;51.112;6.776;2023-02-01T10:23:53;17.53;;;6.33;;
19867;SDS011;10096;51.112;6.776;2023-02-01T10:26:31;14.63;;;5.47;;
19867;SDS011;10096;51.112;6.776;2023-02-01T10:29:02;17.10;;;5.67;;
19867;SDS011;10096;51.112;6.776;2023-02-01T10:31:31;13.53;;;4.60;;
19867;SDS011;10096;51.112;6.776;2023-02-01T10:34:06;12.90;;;5.00;;
19867;SDS011;10096;51.112;6.776;2023-02-01T10:41:11;10.90;;;5.23;;
19867;SDS011;10096;51.112;6.776;2023-02-01T10:43:42;12.63;;;5.50;;
19867;SDS011;10096;51.112;6.776;2023-02-01T10:47:57;17.80;;;6.33;;
19867;SDS011;10096;51.112;6.776;2023-02-01T10:49:37;17.67;;;5.60;;
19867;SDS011;10096;51.112;6.776;2023-02-01T10:52:14;12.33;;;5.43;;
19867;SDS011;10096;51.112;6.776;2023-02-01T10:54:43;13.57;;;6.20;;
19867;SDS011;10096;51.112;6.776;2023-02-01T10:57:20;14.80;;;6.73;;
19867;SDS011;10096;51.112;6.776;2023-02-01T10:59:59;10.77;;;5.20;;
19867;SDS011;10096;51.112;6.776;2023-02-01T11:02:30;16.87;;;6.60;;
19867;SDS011;10096;51.112;6.776;2023-02-01T11:05:01;22.00;;;7.83;;
19867;SDS011;10096;51.112;6.776;2023-02-01T11:07:31;14.87;;;5.77;;
19867;SDS011;10096;51.112;6.776;2023-02-01T11:09:59;15.13;;;5.70;;
19867;SDS011;10096;51.112;6.776;2023-02-01T11:12:28;13.17;;;5.17;;
19867;SDS011;10096;51.112;6.776;2023-02-01T11:14:58;16.37;;;6.23;;
19867;SDS011;10096;51.112;6.776;2023-02-01T11:17:30;9.37;;;4.57;;
19867;SDS011;10096;51.112;6.776;2023-02-01T11:20:03;15.97;;;5.03;;
19867;SDS011;10096;51.112;6.776;2023-02-01T11:22:32;19.33;;;7.73;;
19867;SDS011;10096;51.112;6.776;2023-02-01T11:24:59;13.73;;;6.10;;
19867;SDS011;10096;51.112;6.776;2023-02-01T11:27:33;14.70;;;4.93;;
19867;SDS011;10096;51.112;6.776;2023-02-01T11:30:00;13.33;;;5.67;;
19867;SDS011;10096;51.112;6.776;2023-02-01T11:39:20;14.60;;;5.93;;
19867;SDS011;10096;51.112;6.776;2023-02-01T11:41:55;15.93;;;5.83;;
19867;SDS011;10096;51.112;6.776;2023-02-01T11:44:28;13.60;;;5.53;;
19867;SDS011;10096;51.112;6.776;2023-02-01T11:47:18;17.00;;;5.23;;
19867;SDS011;10096;51.112;6.776;2023-02-01T11:49:47;18.57;;;6.23;;
19867;SDS011;10096;51.112;6.776;2023-02-01T11:52:17;14.60;;;6.00;;
19867;SDS011;10096;51.112;6.776;2023-02-01T11:54:54;14.47;;;5.70;;
19867;SDS011;10096;51.112;6.776;2023-02-01T11:57:36;14.87;;;4.33;;
19867;SDS011;10096;51.112;6.776;2023-02-01T12:00:17;13.70;;;5.30;;
19867;SDS011;10096;51.112;6.776;2023-02-01T12:03:05;16.33;;;5.53;;
19867;SDS011;10096;51.112;6.776;2023-02-01T12:05:48;13.63;;;5.83;;
19867;SDS011;10096;51.112;6.776;2023-02-01T12:08:32;13.47;;;5.60;;
19867;SDS011;10096;51.112;6.776;2023-02-01T12:11:28;13.17;;;6.30;;
19867;SDS011;10096;51.112;6.776;2023-02-01T12:14:06;16.57;;;5.97;;
19867;SDS011;10096;51.112;6.776;2023-02-01T12:16:47;15.43;;;6.30;;
19867;SDS011;10096;51.112;6.776;2023-02-01T12:19:32;11.32;;;5.22;;
19867;SDS011;10096;51.112;6.776;2023-02-01T12:22:14;10.63;;;5.07;;
19867;SDS011;10096;51.112;6.776;2023-02-01T12:24:57;11.70;;;4.70;;
19867;SDS011;10096;51.112;6.776;2023-02-01T12:33:43;16.97;;;6.03;;
19867;SDS011;10096;51.112;6.776;2023-02-01T12:36:19;12.37;;;4.80;;
19867;SDS011;10096;51.112;6.776;2023-02-01T12:38:52;11.17;;;4.30;;
19867;SDS011;10096;51.112;6.776;2023-02-01T12:44:24;8.73;;;4.90;;
19867;SDS011;10096;51.112;6.776;2023-02-01T12:46:57;11.63;;;4.53;;
19867;SDS011;10096;51.112;6.776;2023-02-01T12:49:28;16.60;;;5.00;;
19867;SDS011;10096;51.112;6.776;2023-02-01T12:52:04;12.63;;;4.50;;
19867;SDS011;10096;51.112;6.776;2023-02-01T12:54:37;14.27;;;5.80;;
19867;SDS011;10096;51.112;6.776;2023-02-01T12:57:10;9.97;;;4.00;;
19867;SDS011;10096;51.112;6.776;2023-02-01T12:59:42;9.83;;;4.40;;
19867;SDS011;10096;51.112;6.776;2023-02-01T13:02:22;14.07;;;5.27;;
19867;SDS011;10096;51.112;6.776;2023-02-01T13:04:56;10.27;;;5.60;;
19867;SDS011;10096;51.112;6.776;2023-02-01T13:07:29;15.63;;;4.50;;
19867;SDS011;10096;51.112;6.776;2023-02-01T13:10:05;16.13;;;5.97;;
19867;SDS011;10096;51.112;6.776;2023-02-01T13:12:43;10.23;;;4.53;;
19867;SDS011;10096;51.112;6.776;2023-02-01T13:15:16;15.23;;;5.37;;
19867;SDS011;10096;51.112;6.776;2023-02-01T13:17:49;10.97;;;4.60;;
19867;SDS011;10096;51.112;6.776;2023-02-01T13:20:20;15.20;;;5.53;;
19867;SDS011;10096;51.112;6.776;2023-02-01T13:22:50;13.70;;;5.93;;
19867;SDS011;10096;51.112;6.776;2023-02-01T13:25:25;13.47;;;5.60;;
19867;SDS011;10096;51.112;6.776;2023-02-01T13:27:56;11.53;;;5.20;;
19867;SDS011;10096;51.112;6.776;2023-02-01T13:30:29;14.47;;;5.07;;
19867;SDS011;10096;51.112;6.776;2023-02-01T13:33:19;13.23;;;5.73;;
19867;SDS011;10096;51.112;6.776;2023-02-01T13:42:14;13.40;;;5.20;;
19867;SDS011;10096;51.112;6.776;2023-02-01T13:44:45;15.07;;;5.10;;
19867;SDS011;10096;51.112;6.776;2023-02-01T13:47:26;16.80;;;7.50;;
19867;SDS011;10096;51.112;6.776;2023-02-01T13:49:57;11.73;;;4.07;;
19867;SDS011;10096;51.112;6.776;2023-02-01T13:52:29;12.63;;;4.27;;
19867;SDS011;10096;51.112;6.776;2023-02-01T13:55:01;12.23;;;4.40;;
19867;SDS011;10096;51.112;6.776;2023-02-01T13:57:48;8.53;;;4.03;;
19867;SDS011;10096;51.112;6.776;2023-02-01T14:00:23;7.97;;;3.80;;
19867;SDS011;10096;51.112;6.776;2023-02-01T14:09:14;16.73;;;5.20;;
19867;SDS011;10096;51.112;6.776;2023-02-01T14:11:45;11.00;;;4.90;;
19867;SDS011;10096;51.112;6.776;2023-02-01T14:23:19;8.37;;;3.80;;
19867;SDS011;10096;51.112;6.776;2023-02-01T14:28:41;11.80;;;5.20;;
19867;SDS011;10096;51.112;6.776;2023-02-01T14:31:17;10.93;;;4.40;;
19867;SDS011;10096;51.112;6.776;2023-02-01T14:33:59;12.73;;;3.63;;
19867;SDS011;10096;51.112;6.776;2023-02-01T14:36:38;14.77;;;4.27;;
19867;SDS011;10096;51.112;6.776;2023-02-01T14:39:23;12.27;;;4.57;;
19867;SDS011;10096;51.112;6.776;2023-02-01T14:41:54;11.53;;;4.20;;
19867;SDS011;10096;51.112;6.776;2023-02-01T14:44:26;15.93;;;4.60;;
19867;SDS011;10096;51.112;6.776;2023-02-01T14:50:04;12.37;;;3.70;;
19867;SDS011;10096;51.112;6.776;2023-02-01T14:52:39;12.18;;;4.95;;
19867;SDS011;10096;51.112;6.776;2023-02-01T14:55:11;13.67;;;4.67;;
19867;SDS011;10096;51.112;6.776;2023-02-01T14:57:43;13.70;;;4.30;;
19867;SDS011;10096;51.112;6.776;2023-02-01T15:00:16;9.60;;;3.50;;
19867;SDS011;10096;51.112;6.776;2023-02-01T15:02:47;10.47;;;4.23;;
19867;SDS011;10096;51.112;6.776;2023-02-01T15:05:25;12.30;;;4.77;;
19867;SDS011;10096;51.112;6.776;2023-02-01T15:08:02;8.32;;;3.88;;
19867;SDS011;10096;51.112;6.776;2023-02-01T15:10:41;18.63;;;8.13;;
19867;SDS011;10096;51.112;6.776;2023-02-01T15:13:15;13.57;;;6.03;;
19867;SDS011;10096;51.112;6.776;2023-02-01T15:15:59;10.93;;;4.40;;
19867;SDS011;10096;51.112;6.776;2023-02-01T15:18:30;9.10;;;4.30;;
19867;SDS011;10096;51.112;6.776;2023-02-01T15:20:58;11.63;;;4.40;;
19867;SDS011;10096;51.112;6.776;2023-02-01T15:23:28;9.80;;;4.50;;
19867;SDS011;10096;51.112;6.776;2023-02-01T15:26:00;12.23;;;3.93;;
19867;SDS011;10096;51.112;6.776;2023-02-01T15:28:28;10.43;;;4.70;;
19867;SDS011;10096;51.112;6.776;2023-02-01T15:30:56;12.17;;;4.57;;
19867;SDS011;10096;51.112;6.776;2023-02-01T15:33:25;9.93;;;3.80;;
19867;SDS011;10096;51.112;6.776;2023-02-01T15:35:55;15.30;;;4.83;;
19867;SDS011;10096;51.112;6.776;2023-02-01T15:38:39;14.93;;;4.13;;
19867;SDS011;10096;51.112;6.776;2023-02-01T15:41:11;10.90;;;3.63;;
19867;SDS011;10096;51.112;6.776;2023-02-01T15:43:43;9.33;;;3.83;;
19867;SDS011;10096;51.112;6.776;2023-02-01T15:46:16;12.50;;;4.50;;
19867;SDS011;10096;51.112;6.776;2023-02-01T15:48:47;11.23;;;3.90;;
19867;SDS011;10096;51.112;6.776;2023-02-01T15:51:17;11.87;;;4.07;;
19867;SDS011;10096;51.112;6.776;2023-02-01T15:53:48;12.60;;;4.13;;
19867;SDS011;10096;51.112;6.776;2023-02-01T15:56:25;15.87;;;3.80;;
19867;SDS011;10096;51.112;6.776;2023-02-01T15:58:59;11.30;;;4.83;;
19867;SDS011;10096;51.112;6.776;2023-02-01T16:01:28;10.93;;;4.40;;
19867;SDS011;10096;51.112;6.776;2023-02-01T16:04:11;11.53;;;4.00;;